Terminal Aerodrome Forecast
Issued by NWS

Home | Current Version | Previous Version | Text Only | Print | Product List | Glossary On
Versions: 1 2 3 4 5 6 7 8 9 10 11 12 13 14 15 16
769
FTUS42 KTBW 291741
TAFRSW
TAF
KRSW 291741Z 2918/3018 10012KT P6SM VCTS BKN035CB BKN080 OVC200
      TEMPO 2918/2922 10015G25KT 5SM SHRA BKN025
     FM300100 06009KT P6SM SCT025 BKN100 OVC200
     FM301400 12010KT P6SM VCSH SCT025 BKN080 OVC200=

USA.gov is the U.S. government's official web portal to all federal, state and local government web resources and services.